sensor_id;sensor_type;location;lat;lon;timestamp;temperature;humidity
1678;DHT22;6034;46.864;15.216;2023-08-30T05:04:47;14.80;99.90
1678;DHT22;6034;46.864;15.216;2023-08-30T05:07:14;14.70;99.90
1678;DHT22;6034;46.864;15.216;2023-08-30T05:09:43;14.70;99.90
1678;DHT22;6034;46.864;15.216;2023-08-30T05:12:11;14.70;99.90
1678;DHT22;6034;46.864;15.216;2023-08-30T05:14:40;14.70;99.90
1678;DHT22;6034;46.864;15.216;2023-08-30T05:17:10;14.70;99.90
1678;DHT22;6034;46.864;15.216;2023-08-30T05:19:38;14.70;99.90
1678;DHT22;6034;46.864;15.216;2023-08-30T05:22:08;14.70;99.90
1678;DHT22;6034;46.864;15.216;2023-08-30T05:24:37;14.70;99.90
1678;DHT22;6034;46.864;15.216;2023-08-30T05:27:06;14.60;99.90
1678;DHT22;6034;46.864;15.216;2023-08-30T05:29:35;14.60;99.90
1678;DHT22;6034;46.864;15.216;2023-08-30T05:32:04;14.80;99.90
1678;DHT22;6034;46.864;15.216;2023-08-30T05:34:33;14.80;99.90
1678;DHT22;6034;46.864;15.216;2023-08-30T05:37:01;14.90;99.90
1678;DHT22;6034;46.864;15.216;2023-08-30T05:39:34;14.90;99.90
1678;DHT22;6034;46.864;15.216;2023-08-30T05:42:05;14.90;99.90
1678;DHT22;6034;46.864;15.216;2023-08-30T05:44:33;15.00;99.90
1678;DHT22;6034;46.864;15.216;2023-08-30T05:47:01;15.00;99.90
1678;DHT22;6034;46.864;15.216;2023-08-30T05:49:30;14.90;99.90
1678;DHT22;6034;46.864;15.216;2023-08-30T05:51:57;14.90;99.90
1678;DHT22;6034;46.864;15.216;2023-08-30T05:54:26;14.80;99.90
1678;DHT22;6034;46.864;15.216;2023-08-30T05:56:57;15.00;99.90
1678;DHT22;6034;46.864;15.216;2023-08-30T05:59:29;15.00;99.90
1678;DHT22;6034;46.864;15.216;2023-08-30T06:01:57;15.00;99.90
1678;DHT22;6034;46.864;15.216;2023-08-30T06:04:25;15.00;99.90
1678;DHT22;6034;46.864;15.216;2023-08-30T06:06:53;14.90;99.90
1678;DHT22;6034;46.864;15.216;2023-08-30T06:09:21;14.80;99.90
1678;DHT22;6034;46.864;15.216;2023-08-30T06:11:49;14.90;99.90
1678;DHT22;6034;46.864;15.216;2023-08-30T06:14:18;14.80;99.90
1678;DHT22;6034;46.864;15.216;2023-08-30T06:16:45;14.80;99.90
1678;DHT22;6034;46.864;15.216;2023-08-30T06:19:12;15.00;99.90
1678;DHT22;6034;46.864;15.216;2023-08-30T06:21:39;15.10;99.90
1678;DHT22;6034;46.864;15.216;2023-08-30T06:24:06;15.20;99.90
1678;DHT22;6034;46.864;15.216;2023-08-30T06:26:34;15.20;99.90
1678;DHT22;6034;46.864;15.216;2023-08-30T06:29:01;15.20;99.90
1678;DHT22;6034;46.864;15.216;2023-08-30T06:31:30;15.30;99.90
1678;DHT22;6034;46.864;15.216;2023-08-30T06:33:57;15.30;99.90
1678;DHT22;6034;46.864;15.216;2023-08-30T06:36:25;15.30;99.90
1678;DHT22;6034;46.864;15.216;2023-08-30T06:38:52;15.30;99.90
1678;DHT22;6034;46.864;15.216;2023-08-30T06:41:19;15.30;99.90
1678;DHT22;6034;46.864;15.216;2023-08-30T06:43:46;15.30;99.90
1678;DHT22;6034;46.864;15.216;2023-08-30T06:46:14;15.40;99.90
1678;DHT22;6034;46.864;15.216;2023-08-30T06:48:42;15.40;99.90
1678;DHT22;6034;46.864;15.216;2023-08-30T06:51:10;15.40;99.90
1678;DHT22;6034;46.864;15.216;2023-08-30T06:53:37;15.10;99.90
1678;DHT22;6034;46.864;15.216;2023-08-30T06:56:04;15.20;99.90
1678;DHT22;6034;46.864;15.216;2023-08-30T06:58:32;15.20;99.90
1678;DHT22;6034;46.864;15.216;2023-08-30T07:00:59;15.20;99.90
1678;DHT22;6034;46.864;15.216;2023-08-30T07:03:29;15.10;99.90
1678;DHT22;6034;46.864;15.216;2023-08-30T07:05:57;15.00;99.90
1678;DHT22;6034;46.864;15.216;2023-08-30T07:08:24;15.20;99.90
1678;DHT22;6034;46.864;15.216;2023-08-30T07:10:52;15.40;99.90
1678;DHT22;6034;46.864;15.216;2023-08-30T07:13:19;15.40;99.90
1678;DHT22;6034;46.864;15.216;2023-08-30T07:15:46;15.50;99.90
1678;DHT22;6034;46.864;15.216;2023-08-30T07:18:15;15.60;99.90
1678;DHT22;6034;46.864;15.216;2023-08-30T07:20:42;15.60;99.90
1678;DHT22;6034;46.864;15.216;2023-08-30T07:23:11;15.60;99.90
1678;DHT22;6034;46.864;15.216;2023-08-30T07:25:38;15.70;99.90
1678;DHT22;6034;46.864;15.216;2023-08-30T07:28:06;15.90;99.90
1678;DHT22;6034;46.864;15.216;2023-08-30T07:30:33;15.90;99.90
1678;DHT22;6034;46.864;15.216;2023-08-30T07:33:01;16.00;99.90
1678;DHT22;6034;46.864;15.216;2023-08-30T07:35:29;16.10;99.90
1678;DHT22;6034;46.864;15.216;2023-08-30T07:37:56;16.10;99.90
1678;DHT22;6034;46.864;15.216;2023-08-30T07:40:25;16.20;99.90
1678;DHT22;6034;46.864;15.216;2023-08-30T07:42:54;16.20;99.90
1678;DHT22;6034;46.864;15.216;2023-08-30T07:45:21;16.30;99.90
1678;DHT22;6034;46.864;15.216;2023-08-30T07:47:48;16.30;99.90
1678;DHT22;6034;46.864;15.216;2023-08-30T07:50:16;16.30;99.90
1678;DHT22;6034;46.864;15.216;2023-08-30T07:52:44;16.20;99.90
1678;DHT22;6034;46.864;15.216;2023-08-30T07:55:12;16.30;99.90
1678;DHT22;6034;46.864;15.216;2023-08-30T07:57:41;16.40;99.90
1678;DHT22;6034;46.864;15.216;2023-08-30T08:00:09;16.50;99.90
1678;DHT22;6034;46.864;15.216;2023-08-30T08:02:37;16.40;99.90
1678;DHT22;6034;46.864;15.216;2023-08-30T08:05:04;16.40;99.90
1678;DHT22;6034;46.864;15.216;2023-08-30T08:07:31;16.50;99.90
1678;DHT22;6034;46.864;15.216;2023-08-30T08:09:59;16.60;99.90
1678;DHT22;6034;46.864;15.216;2023-08-30T08:12:26;16.70;99.90
1678;DHT22;6034;46.864;15.216;2023-08-30T08:14:55;16.60;99.90
1678;DHT22;6034;46.864;15.216;2023-08-30T08:17:22;16.60;99.90
1678;DHT22;6034;46.864;15.216;2023-08-30T08:19:49;16.60;99.90
1678;DHT22;6034;46.864;15.216;2023-08-30T08:22:17;16.70;99.90
1678;DHT22;6034;46.864;15.216;2023-08-30T08:24:44;16.70;99.90
1678;DHT22;6034;46.864;15.216;2023-08-30T08:27:12;16.80;99.90
1678;DHT22;6034;46.864;15.216;2023-08-30T08:29:40;16.80;99.90
1678;DHT22;6034;46.864;15.216;2023-08-30T08:32:08;16.80;99.90
1678;DHT22;6034;46.864;15.216;2023-08-30T08:34:35;16.80;99.90
1678;DHT22;6034;46.864;15.216;2023-08-30T08:37:03;16.80;99.90
1678;DHT22;6034;46.864;15.216;2023-08-30T08:39:30;16.90;99.90
1678;DHT22;6034;46.864;15.216;2023-08-30T08:41:59;16.90;99.90
1678;DHT22;6034;46.864;15.216;2023-08-30T08:44:27;17.00;99.90
1678;DHT22;6034;46.864;15.216;2023-08-30T08:46:59;17.00;99.90
1678;DHT22;6034;46.864;15.216;2023-08-30T08:49:28;17.00;99.90
1678;DHT22;6034;46.864;15.216;2023-08-30T08:51:57;17.00;99.90
1678;DHT22;6034;46.864;15.216;2023-08-30T08:54:25;17.10;99.90
1678;DHT22;6034;46.864;15.216;2023-08-30T08:56:53;17.10;99.90
1678;DHT22;6034;46.864;15.216;2023-08-30T08:59:23;17.20;99.90
1678;DHT22;6034;46.864;15.216;2023-08-30T09:01:51;17.10;99.90
1678;DHT22;6034;46.864;15.216;2023-08-30T09:04:19;17.30;99.90
1678;DHT22;6034;46.864;15.216;2023-08-30T09:06:48;17.30;99.90
1678;DHT22;6034;46.864;15.216;2023-08-30T09:09:16;17.40;99.90
1678;DHT22;6034;46.864;15.216;2023-08-30T09:11:43;17.50;99.90
1678;DHT22;6034;46.864;15.216;2023-08-30T09:14:10;17.50;99.90
1678;DHT22;6034;46.864;15.216;2023-08-30T09:16:38;17.60;99.90
1678;DHT22;6034;46.864;15.216;2023-08-30T09:19:05;17.70;99.90
1678;DHT22;6034;46.864;15.216;2023-08-30T09:21:33;17.80;99.90
1678;DHT22;6034;46.864;15.216;2023-08-30T09:24:03;17.80;99.90
1678;DHT22;6034;46.864;15.216;2023-08-30T09:26:32;17.90;99.90
1678;DHT22;6034;46.864;15.216;2023-08-30T09:29:03;17.80;99.90
1678;DHT22;6034;46.864;15.216;2023-08-30T09:31:34;17.90;99.90
1678;DHT22;6034;46.864;15.216;2023-08-30T09:34:03;18.00;99.90
1678;DHT22;6034;46.864;15.216;2023-08-30T09:36:33;18.10;99.90
1678;DHT22;6034;46.864;15.216;2023-08-30T09:39:05;18.10;99.90
1678;DHT22;6034;46.864;15.216;2023-08-30T09:41:32;18.10;99.90
1678;DHT22;6034;46.864;15.216;2023-08-30T09:44:06;18.20;99.90
1678;DHT22;6034;46.864;15.216;2023-08-30T09:46:41;18.30;99.90
1678;DHT22;6034;46.864;15.216;2023-08-30T09:49:09;18.20;99.90
1678;DHT22;6034;46.864;15.216;2023-08-30T09:51:38;18.20;99.90
1678;DHT22;6034;46.864;15.216;2023-08-30T09:54:14;18.20;99.90
1678;DHT22;6034;46.864;15.216;2023-08-30T09:56:43;18.10;99.90
1678;DHT22;6034;46.864;15.216;2023-08-30T09:59:12;18.30;99.90
1678;DHT22;6034;46.864;15.216;2023-08-30T10:01:41;18.40;99.90
1678;DHT22;6034;46.864;15.216;2023-08-30T10:04:09;18.50;99.90
1678;DHT22;6034;46.864;15.216;2023-08-30T10:06:37;18.50;99.90
1678;DHT22;6034;46.864;15.216;2023-08-30T10:09:05;18.50;99.90
1678;DHT22;6034;46.864;15.216;2023-08-30T10:11:37;18.50;99.90
1678;DHT22;6034;46.864;15.216;2023-08-30T10:14:05;18.60;99.90
1678;DHT22;6034;46.864;15.216;2023-08-30T10:16:40;18.70;99.90
1678;DHT22;6034;46.864;15.216;2023-08-30T10:19:12;18.70;99.90
1678;DHT22;6034;46.864;15.216;2023-08-30T10:21:43;18.70;99.90
1678;DHT22;6034;46.864;15.216;2023-08-30T10:24:12;18.80;99.90
1678;DHT22;6034;46.864;15.216;2023-08-30T10:26:44;18.80;99.90
1678;DHT22;6034;46.864;15.216;2023-08-30T10:29:13;18.80;99.90
1678;DHT22;6034;46.864;15.216;2023-08-30T10:31:41;18.70;99.90
1678;DHT22;6034;46.864;15.216;2023-08-30T10:34:14;18.80;99.90
1678;DHT22;6034;46.864;15.216;2023-08-30T10:36:43;18.80;99.90
1678;DHT22;6034;46.864;15.216;2023-08-30T10:39:14;18.70;99.90
1678;DHT22;6034;46.864;15.216;2023-08-30T10:41:56;18.80;99.90
1678;DHT22;6034;46.864;15.216;2023-08-30T10:44:24;18.90;99.90
1678;DHT22;6034;46.864;15.216;2023-08-30T10:46:54;18.90;99.90
1678;DHT22;6034;46.864;15.216;2023-08-30T10:49:21;19.00;99.90
1678;DHT22;6034;46.864;15.216;2023-08-30T10:51:59;19.00;99.90
1678;DHT22;6034;46.864;15.216;2023-08-30T10:54:37;19.00;99.90
1678;DHT22;6034;46.864;15.216;2023-08-30T10:57:12;19.00;99.90
1678;DHT22;6034;46.864;15.216;2023-08-30T10:59:40;19.00;99.90
1678;DHT22;6034;46.864;15.216;2023-08-30T11:02:07;19.00;99.90
1678;DHT22;6034;46.864;15.216;2023-08-30T11:04:39;19.00;99.90
1678;DHT22;6034;46.864;15.216;2023-08-30T11:07:08;19.00;99.90
1678;DHT22;6034;46.864;15.216;2023-08-30T11:09:37;19.00;99.90
1678;DHT22;6034;46.864;15.216;2023-08-30T11:12:08;19.10;99.90
1678;DHT22;6034;46.864;15.216;2023-08-30T11:14:40;19.30;99.90
1678;DHT22;6034;46.864;15.216;2023-08-30T11:17:10;19.40;99.90
1678;DHT22;6034;46.864;15.216;2023-08-30T11:19:37;19.30;99.90
1678;DHT22;6034;46.864;15.216;2023-08-30T11:22:04;19.30;99.90
1678;DHT22;6034;46.864;15.216;2023-08-30T11:24:33;19.40;99.90
1678;DHT22;6034;46.864;15.216;2023-08-30T11:27:01;19.40;99.90
1678;DHT22;6034;46.864;15.216;2023-08-30T11:29:29;19.40;99.90
1678;DHT22;6034;46.864;15.216;2023-08-30T11:31:56;19.40;99.90
1678;DHT22;6034;46.864;15.216;2023-08-30T11:34:24;19.40;99.90
1678;DHT22;6034;46.864;15.216;2023-08-30T11:36:52;19.40;99.90
1678;DHT22;6034;46.864;15.216;2023-08-30T11:39:20;19.40;99.90
1678;DHT22;6034;46.864;15.216;2023-08-30T11:41:48;19.40;99.90
1678;DHT22;6034;46.864;15.216;2023-08-30T11:44:17;19.30;99.90
1678;DHT22;6034;46.864;15.216;2023-08-30T11:46:46;19.50;99.90
1678;DHT22;6034;46.864;15.216;2023-08-30T11:49:16;19.60;99.90
1678;DHT22;6034;46.864;15.216;2023-08-30T11:51:43;19.50;99.90
1678;DHT22;6034;46.864;15.216;2023-08-30T11:54:11;19.60;99.90
1678;DHT22;6034;46.864;15.216;2023-08-30T11:56:38;19.80;99.90
1678;DHT22;6034;46.864;15.216;2023-08-30T11:59:06;19.80;99.90
1678;DHT22;6034;46.864;15.216;2023-08-30T12:01:33;19.70;99.90
1678;DHT22;6034;46.864;15.216;2023-08-30T12:04:10;19.90;99.90
1678;DHT22;6034;46.864;15.216;2023-08-30T12:06:38;20.00;99.90
1678;DHT22;6034;46.864;15.216;2023-08-30T12:09:05;20.20;99.90
1678;DHT22;6034;46.864;15.216;2023-08-30T12:11:35;20.20;99.90
1678;DHT22;6034;46.864;15.216;2023-08-30T12:14:03;20.10;99.90
1678;DHT22;6034;46.864;15.216;2023-08-30T12:16:30;20.10;99.90
1678;DHT22;6034;46.864;15.216;2023-08-30T12:19:07;20.10;99.90
1678;DHT22;6034;46.864;15.216;2023-08-30T12:21:42;20.20;99.90
1678;DHT22;6034;46.864;15.216;2023-08-30T12:24:10;20.30;99.90
1678;DHT22;6034;46.864;15.216;2023-08-30T12:26:37;20.40;99.90
1678;DHT22;6034;46.864;15.216;2023-08-30T12:29:05;20.40;99.90
1678;DHT22;6034;46.864;15.216;2023-08-30T12:31:33;20.40;99.90
1678;DHT22;6034;46.864;15.216;2023-08-30T12:34:00;20.40;99.90
1678;DHT22;6034;46.864;15.216;2023-08-30T12:36:27;20.30;99.90
1678;DHT22;6034;46.864;15.216;2023-08-30T12:38:56;20.20;99.90
1678;DHT22;6034;46.864;15.216;2023-08-30T12:41:23;20.20;99.90
1678;DHT22;6034;46.864;15.216;2023-08-30T12:43:51;20.30;99.90
1678;DHT22;6034;46.864;15.216;2023-08-30T12:46:18;20.30;99.90
1678;DHT22;6034;46.864;15.216;2023-08-30T12:48:46;20.30;99.90
1678;DHT22;6034;46.864;15.216;2023-08-30T12:51:13;20.50;99.90
1678;DHT22;6034;46.864;15.216;2023-08-30T12:53:40;20.50;99.90
1678;DHT22;6034;46.864;15.216;2023-08-30T12:56:09;20.50;99.90
1678;DHT22;6034;46.864;15.216;2023-08-30T12:58:37;20.50;99.90
1678;DHT22;6034;46.864;15.216;2023-08-30T13:01:04;20.50;99.90
1678;DHT22;6034;46.864;15.216;2023-08-30T13:03:31;20.40;99.90
1678;DHT22;6034;46.864;15.216;2023-08-30T13:05:58;20.50;99.90
1678;DHT22;6034;46.864;15.216;2023-08-30T13:08:26;20.40;99.90
1678;DHT22;6034;46.864;15.216;2023-08-30T13:10:53;20.30;99.90
1678;DHT22;6034;46.864;15.216;2023-08-30T13:13:22;20.40;99.90
1678;DHT22;6034;46.864;15.216;2023-08-30T13:15:49;20.30;99.90
1678;DHT22;6034;46.864;15.216;2023-08-30T13:18:17;20.30;99.90
1678;DHT22;6034;46.864;15.216;2023-08-30T13:20:44;20.30;99.90
1678;DHT22;6034;46.864;15.216;2023-08-30T13:23:12;20.30;99.90
1678;DHT22;6034;46.864;15.216;2023-08-30T13:25:40;20.30;99.90
1678;DHT22;6034;46.864;15.216;2023-08-30T13:28:08;20.30;99.90
1678;DHT22;6034;46.864;15.216;2023-08-30T13:30:44;20.40;99.90
1678;DHT22;6034;46.864;15.216;2023-08-30T13:33:12;20.40;99.90
1678;DHT22;6034;46.864;15.216;2023-08-30T13:35:41;20.50;99.90
1678;DHT22;6034;46.864;15.216;2023-08-30T13:38:08;20.50;99.90
1678;DHT22;6034;46.864;15.216;2023-08-30T13:40:36;20.50;99.90
1678;DHT22;6034;46.864;15.216;2023-08-30T13:43:03;20.50;99.90
1678;DHT22;6034;46.864;15.216;2023-08-30T13:45:31;20.60;99.90
1678;DHT22;6034;46.864;15.216;2023-08-30T13:48:00;20.50;99.90
1678;DHT22;6034;46.864;15.216;2023-08-30T13:50:28;20.50;99.90
1678;DHT22;6034;46.864;15.216;2023-08-30T13:52:56;20.50;99.90
1678;DHT22;6034;46.864;15.216;2023-08-30T13:55:24;20.60;99.90
1678;DHT22;6034;46.864;15.216;2023-08-30T13:57:53;20.50;99.90
1678;DHT22;6034;46.864;15.216;2023-08-30T14:00:22;20.50;99.90
1678;DHT22;6034;46.864;15.216;2023-08-30T14:02:49;20.40;99.90
1678;DHT22;6034;46.864;15.216;2023-08-30T14:05:19;20.40;99.90
1678;DHT22;6034;46.864;15.216;2023-08-30T14:07:46;20.30;99.90
1678;DHT22;6034;46.864;15.216;2023-08-30T14:10:13;20.20;99.90
1678;DHT22;6034;46.864;15.216;2023-08-30T14:12:44;20.20;99.90
1678;DHT22;6034;46.864;15.216;2023-08-30T14:15:12;20.20;99.90
1678;DHT22;6034;46.864;15.216;2023-08-30T14:17:39;20.30;99.90
1678;DHT22;6034;46.864;15.216;2023-08-30T14:20:08;20.20;99.90
1678;DHT22;6034;46.864;15.216;2023-08-30T14:22:37;20.20;99.90
1678;DHT22;6034;46.864;15.216;2023-08-30T14:25:05;20.10;99.90
1678;DHT22;6034;46.864;15.216;2023-08-30T14:27:32;20.10;99.90
1678;DHT22;6034;46.864;15.216;2023-08-30T14:30:00;20.00;99.90
1678;DHT22;6034;46.864;15.216;2023-08-30T14:32:28;19.90;99.90
1678;DHT22;6034;46.864;15.216;2023-08-30T14:34:56;19.90;99.90
1678;DHT22;6034;46.864;15.216;2023-08-30T14:37:24;20.00;99.90
1678;DHT22;6034;46.864;15.216;2023-08-30T14:39:53;20.10;99.90
1678;DHT22;6034;46.864;15.216;2023-08-30T14:42:20;20.10;99.90
1678;DHT22;6034;46.864;15.216;2023-08-30T14:44:49;19.90;99.90
1678;DHT22;6034;46.864;15.216;2023-08-30T14:47:17;19.90;99.90
1678;DHT22;6034;46.864;15.216;2023-08-30T14:49:47;19.90;99.90
1678;DHT22;6034;46.864;15.216;2023-08-30T14:52:15;19.90;99.90
1678;DHT22;6034;46.864;15.216;2023-08-30T14:54:43;19.80;99.90
1678;DHT22;6034;46.864;15.216;2023-08-30T14:57:13;19.90;99.90
1678;DHT22;6034;46.864;15.216;2023-08-30T14:59:42;19.80;99.90
1678;DHT22;6034;46.864;15.216;2023-08-30T15:02:10;19.60;99.90
1678;DHT22;6034;46.864;15.216;2023-08-30T15:04:39;19.70;99.90
1678;DHT22;6034;46.864;15.216;2023-08-30T15:07:08;19.70;99.90
1678;DHT22;6034;46.864;15.216;2023-08-30T15:09:38;19.70;99.90
1678;DHT22;6034;46.864;15.216;2023-08-30T15:12:06;19.70;99.90
1678;DHT22;6034;46.864;15.216;2023-08-30T15:14:36;19.70;99.90
1678;DHT22;6034;46.864;15.216;2023-08-30T15:17:07;19.70;99.90
1678;DHT22;6034;46.864;15.216;2023-08-30T15:19:35;19.80;99.90
1678;DHT22;6034;46.864;15.216;2023-08-30T15:22:05;19.90;99.90
1678;DHT22;6034;46.864;15.216;2023-08-30T15:24:32;19.70;99.90
1678;DHT22;6034;46.864;15.216;2023-08-30T15:27:01;19.70;99.90
1678;DHT22;6034;46.864;15.216;2023-08-30T15:29:30;19.50;99.90
1678;DHT22;6034;46.864;15.216;2023-08-30T15:32:00;19.40;99.90
1678;DHT22;6034;46.864;15.216;2023-08-30T15:34:27;19.30;99.90
1678;DHT22;6034;46.864;15.216;2023-08-30T15:36:56;18.80;99.90
1678;DHT22;6034;46.864;15.216;2023-08-30T15:39:24;18.20;99.90
1678;DHT22;6034;46.864;15.216;2023-08-30T15:41:52;17.90;99.90
1678;DHT22;6034;46.864;15.216;2023-08-30T15:44:20;18.10;99.90
1678;DHT22;6034;46.864;15.216;2023-08-30T15:46:48;18.20;99.90
1678;DHT22;6034;46.864;15.216;2023-08-30T15:49:19;18.00;99.90
1678;DHT22;6034;46.864;15.216;2023-08-30T15:51:47;18.10;99.90
1678;DHT22;6034;46.864;15.216;2023-08-30T15:54:15;18.00;99.90
1678;DHT22;6034;46.864;15.216;2023-08-30T15:56:43;17.80;99.90
1678;DHT22;6034;46.864;15.216;2023-08-30T15:59:11;17.60;99.90
1678;DHT22;6034;46.864;15.216;2023-08-30T16:01:38;17.50;99.90
1678;DHT22;6034;46.864;15.216;2023-08-30T16:04:07;17.40;99.90
1678;DHT22;6034;46.864;15.216;2023-08-30T16:06:38;17.50;99.90
1678;DHT22;6034;46.864;15.216;2023-08-30T16:09:08;17.60;99.90
1678;DHT22;6034;46.864;15.216;2023-08-30T16:11:41;17.60;99.90
1678;DHT22;6034;46.864;15.216;2023-08-30T16:14:11;17.40;99.90
1678;DHT22;6034;46.864;15.216;2023-08-30T16:16:38;17.20;99.90
1678;DHT22;6034;46.864;15.216;2023-08-30T16:19:06;17.10;99.90
1678;DHT22;6034;46.864;15.216;2023-08-30T16:21:37;17.10;99.90
1678;DHT22;6034;46.864;15.216;2023-08-30T16:24:11;16.90;99.90
1678;DHT22;6034;46.864;15.216;2023-08-30T16:26:39;16.70;99.90
1678;DHT22;6034;46.864;15.216;2023-08-30T16:29:08;16.80;99.90
1678;DHT22;6034;46.864;15.216;2023-08-30T16:31:37;16.80;99.90
1678;DHT22;6034;46.864;15.216;2023-08-30T16:34:06;16.90;99.90
1678;DHT22;6034;46.864;15.216;2023-08-30T16:36:41;17.00;99.90
1678;DHT22;6034;46.864;15.216;2023-08-30T16:39:09;16.90;99.90
1678;DHT22;6034;46.864;15.216;2023-08-30T16:41:38;17.00;99.90
1678;DHT22;6034;46.864;15.216;2023-08-30T16:44:06;16.70;99.90
1678;DHT22;6034;46.864;15.216;2023-08-30T16:46:36;16.60;99.90
1678;DHT22;6034;46.864;15.216;2023-08-30T16:49:04;16.60;99.90
1678;DHT22;6034;46.864;15.216;2023-08-30T16:51:33;16.70;99.90
1678;DHT22;6034;46.864;15.216;2023-08-30T16:54:07;16.80;99.90
1678;DHT22;6034;46.864;15.216;2023-08-30T16:56:37;16.80;99.90
1678;DHT22;6034;46.864;15.216;2023-08-30T16:59:07;16.70;99.90
1678;DHT22;6034;46.864;15.216;2023-08-30T17:01:41;16.70;99.90
1678;DHT22;6034;46.864;15.216;2023-08-30T17:04:27;16.70;99.90
1678;DHT22;6034;46.864;15.216;2023-08-30T17:06:55;16.80;99.90
1678;DHT22;6034;46.864;15.216;2023-08-30T17:09:32;16.70;99.90
1678;DHT22;6034;46.864;15.216;2023-08-30T17:12:01;16.70;99.90
1678;DHT22;6034;46.864;15.216;2023-08-30T17:14:31;16.80;99.90
1678;DHT22;6034;46.864;15.216;2023-08-30T17:16:59;16.80;99.90
1678;DHT22;6034;46.864;15.216;2023-08-30T17:19:28;16.70;99.90
1678;DHT22;6034;46.864;15.216;2023-08-30T17:21:59;16.70;99.90
1678;DHT22;6034;46.864;15.216;2023-08-30T17:24:30;16.70;99.90
1678;DHT22;6034;46.864;15.216;2023-08-30T17:27:04;16.80;99.90
1678;DHT22;6034;46.864;15.216;2023-08-30T17:29:34;16.70;99.90
1678;DHT22;6034;46.864;15.216;2023-08-30T17:32:05;16.70;99.90
1678;DHT22;6034;46.864;15.216;2023-08-30T17:34:36;16.60;99.90
1678;DHT22;6034;46.864;15.216;2023-08-30T17:37:07;16.60;99.90
1678;DHT22;6034;46.864;15.216;2023-08-30T17:39:43;16.60;99.90
1678;DHT22;6034;46.864;15.216;2023-08-30T17:42:14;16.50;99.90
1678;DHT22;6034;46.864;15.216;2023-08-30T17:44:43;16.50;99.90
1678;DHT22;6034;46.864;15.216;2023-08-30T17:47:14;16.50;99.90
1678;DHT22;6034;46.864;15.216;2023-08-30T17:49:44;16.50;99.90
1678;DHT22;6034;46.864;15.216;2023-08-30T17:52:13;16.50;99.90
1678;DHT22;6034;46.864;15.216;2023-08-30T17:54:46;16.50;99.90
1678;DHT22;6034;46.864;15.216;2023-08-30T17:57:15;16.50;99.90
1678;DHT22;6034;46.864;15.216;2023-08-30T17:59:47;16.40;99.90
1678;DHT22;6034;46.864;15.216;2023-08-30T18:02:18;16.50;99.90
1678;DHT22;6034;46.864;15.216;2023-08-30T18:04:46;16.50;99.90
1678;DHT22;6034;46.864;15.216;2023-08-30T18:07:18;16.40;99.90
1678;DHT22;6034;46.864;15.216;2023-08-30T18:09:53;16.30;99.90
1678;DHT22;6034;46.864;15.216;2023-08-30T18:12:23;16.40;99.90
1678;DHT22;6034;46.864;15.216;2023-08-30T18:14:53;16.50;99.90
1678;DHT22;6034;46.864;15.216;2023-08-30T18:17:23;16.50;99.90
1678;DHT22;6034;46.864;15.216;2023-08-30T18:19:55;16.40;99.90
1678;DHT22;6034;46.864;15.216;2023-08-30T18:22:23;16.40;99.90
1678;DHT22;6034;46.864;15.216;2023-08-30T18:24:54;16.40;99.90
1678;DHT22;6034;46.864;15.216;2023-08-30T18:27:22;16.40;99.90
1678;DHT22;6034;46.864;15.216;2023-08-30T18:29:53;16.40;99.90
1678;DHT22;6034;46.864;15.216;2023-08-30T18:32:23;16.30;99.90
1678;DHT22;6034;46.864;15.216;2023-08-30T18:34:55;16.40;99.90
1678;DHT22;6034;46.864;15.216;2023-08-30T18:37:32;16.30;99.90
1678;DHT22;6034;46.864;15.216;2023-08-30T18:40:06;16.30;99.90
1678;DHT22;6034;46.864;15.216;2023-08-30T18:42:40;16.30;99.90
1678;DHT22;6034;46.864;15.216;2023-08-30T18:45:10;16.30;99.90
1678;DHT22;6034;46.864;15.216;2023-08-30T18:47:41;16.20;99.90
1678;DHT22;6034;46.864;15.216;2023-08-30T18:50:11;16.20;99.90
1678;DHT22;6034;46.864;15.216;2023-08-30T18:52:39;16.20;99.90
1678;DHT22;6034;46.864;15.216;2023-08-30T18:55:15;16.20;99.90
1678;DHT22;6034;46.864;15.216;2023-08-30T18:57:44;16.10;99.90
1678;DHT22;6034;46.864;15.216;2023-08-30T19:00:17;16.00;99.90
1678;DHT22;6034;46.864;15.216;2023-08-30T19:02:47;16.10;99.90
1678;DHT22;6034;46.864;15.216;2023-08-30T19:05:17;16.10;99.90
1678;DHT22;6034;46.864;15.216;2023-08-30T19:07:50;16.10;99.90
1678;DHT22;6034;46.864;15.216;2023-08-30T19:10:33;16.20;99.90
1678;DHT22;6034;46.864;15.216;2023-08-30T19:13:06;16.20;99.90
1678;DHT22;6034;46.864;15.216;2023-08-30T19:15:36;16.20;99.90
1678;DHT22;6034;46.864;15.216;2023-08-30T19:18:11;16.10;99.90
1678;DHT22;6034;46.864;15.216;2023-08-30T19:20:39;16.00;99.90
1678;DHT22;6034;46.864;15.216;2023-08-30T19:23:08;16.00;99.90
1678;DHT22;6034;46.864;15.216;2023-08-30T19:25:38;16.10;99.90
1678;DHT22;6034;46.864;15.216;2023-08-30T19:28:07;16.10;99.90
1678;DHT22;6034;46.864;15.216;2023-08-30T19:30:45;16.00;99.90
1678;DHT22;6034;46.864;15.216;2023-08-30T19:33:20;16.00;99.90
1678;DHT22;6034;46.864;15.216;2023-08-30T19:35:53;16.00;99.90
1678;DHT22;6034;46.864;15.216;2023-08-30T19:38:24;16.10;99.90
1678;DHT22;6034;46.864;15.216;2023-08-30T19:40:55;15.90;99.90
1678;DHT22;6034;46.864;15.216;2023-08-30T19:43:32;16.00;99.90
1678;DHT22;6034;46.864;15.216;2023-08-30T19:46:12;15.90;99.90
1678;DHT22;6034;46.864;15.216;2023-08-30T19:48:50;15.90;99.90
1678;DHT22;6034;46.864;15.216;2023-08-30T19:51:33;15.90;99.90
1678;DHT22;6034;46.864;15.216;2023-08-30T19:54:02;16.00;99.90
1678;DHT22;6034;46.864;15.216;2023-08-30T19:56:33;15.90;99.90
1678;DHT22;6034;46.864;15.216;2023-08-30T19:59:00;15.90;99.90
1678;DHT22;6034;46.864;15.216;2023-08-30T20:01:30;15.90;99.90
1678;DHT22;6034;46.864;15.216;2023-08-30T20:04:00;15.90;99.90
1678;DHT22;6034;46.864;15.216;2023-08-30T20:06:28;15.80;99.90
1678;DHT22;6034;46.864;15.216;2023-08-30T20:08:57;15.90;99.90
1678;DHT22;6034;46.864;15.216;2023-08-30T20:11:25;15.80;99.90
1678;DHT22;6034;46.864;15.216;2023-08-30T20:13:56;15.80;99.90
1678;DHT22;6034;46.864;15.216;2023-08-30T20:16:25;15.80;99.90
1678;DHT22;6034;46.864;15.216;2023-08-30T20:18:53;15.80;99.90
1678;DHT22;6034;46.864;15.216;2023-08-30T20:21:23;15.80;99.90
1678;DHT22;6034;46.864;15.216;2023-08-30T20:23:53;15.80;99.90
1678;DHT22;6034;46.864;15.216;2023-08-30T20:26:22;15.90;99.90
1678;DHT22;6034;46.864;15.216;2023-08-30T20:28:50;15.90;99.90
1678;DHT22;6034;46.864;15.216;2023-08-30T20:31:20;15.90;99.90
1678;DHT22;6034;46.864;15.216;2023-08-30T20:33:48;15.90;99.90
1678;DHT22;6034;46.864;15.216;2023-08-30T20:36:20;15.90;99.90
1678;DHT22;6034;46.864;15.216;2023-08-30T20:38:47;15.90;99.90
1678;DHT22;6034;46.864;15.216;2023-08-30T20:41:16;15.90;99.90
1678;DHT22;6034;46.864;15.216;2023-08-30T20:43:46;15.90;99.90
1678;DHT22;6034;46.864;15.216;2023-08-30T20:46:14;15.80;99.90
1678;DHT22;6034;46.864;15.216;2023-08-30T20:48:43;15.90;99.90
1678;DHT22;6034;46.864;15.216;2023-08-30T20:51:14;15.90;99.90
1678;DHT22;6034;46.864;15.216;2023-08-30T20:53:41;15.90;99.90
1678;DHT22;6034;46.864;15.216;2023-08-30T20:56:12;15.80;99.90
1678;DHT22;6034;46.864;15.216;2023-08-30T20:58:41;15.80;99.90
1678;DHT22;6034;46.864;15.216;2023-08-30T21:01:12;15.70;99.90